Aidasol — ICPE — position and weather

sailwx.info

Track history (hours):
 
Tides and Currents Weather Stations Pressure Air Temp Water Temp Dewpoint Dewpoint Depression Visibility Wind Speed Wind Dir Waves Ship Positions

Aidasol

Last reported at 2018-Feb-19 04:48 UTC. Time now 2018-Feb-20 21:18 UTC.
Position N 28°50' W 015°45'.

Length 253 m; draft 7.3 m.

Type: Passenger vessel. MMSI: 247302900.

Date/timePositionNaut miles runAvg speedWind from/ knotsBaromVisibWave heightAir tempDewpointWater temp
2018-Feb-19 04:48N 28°50' W 015°45'2 7.6
2018-Feb-19 04:30N 28°48' W 015°44'4 7.6
2018-Feb-19 04:01N 28°44' W 015°42'4 7.7
2018-Feb-19 03:30N 28°41' W 015°40'4 7.6
2018-Feb-19 03:00N 28°38' W 015°38'4 7.7
2018-Feb-19 02:30N 28°34' W 015°36'4 7.7
2018-Feb-19 02:00N 28°31' W 015°34'4 7.7
2018-Feb-19 01:30N 28°27' W 015°32'4 7.7
2018-Feb-19 01:00N 28°24' W 015°30'4 7.7
2018-Feb-19 00:30N 28°20' W 015°28'4 7.7
2018-Feb-19 00:00N 28°17' W 015°26'4 7.7
2018-Feb-18 23:30N 28°13' W 015°24'4 7.5
2018-Feb-18 23:00N 28°10' W 015°22'3 6.2
2018-Feb-18 22:30N 28°07' W 015°23'2 3.6
2018-Feb-18 21:54N 28°08' W 015°25'0 0.0
2018-Feb-18 21:24N 28°08' W 015°25'0 0.0
2018-Feb-18 20:54N 28°08' W 015°25'0 0.0
2018-Feb-18 20:27N 28°08' W 015°25'0 0.0
2018-Feb-18 19:58N 28°08' W 015°25'0 0.0
2018-Feb-18 19:26N 28°08' W 015°25'0 0.0
2018-Feb-18 18:56N 28°08' W 015°25'0 0.0
2018-Feb-18 18:26N 28°08' W 015°25'0 0.0
2018-Feb-18 17:59N 28°08' W 015°25'0 0.0
2018-Feb-18 17:29N 28°08' W 015°25'0 0.0
2018-Feb-18 16:59N 28°08' W 015°25'0 0.0
2018-Feb-18 16:29N 28°08' W 015°25'0 0.0
2018-Feb-18 15:59N 28°08' W 015°25'0 0.0
2018-Feb-18 15:29N 28°08' W 015°25'0 0.0
2018-Feb-18 14:59N 28°08' W 015°25'0 0.0
2018-Feb-18 14:29N 28°08' W 015°25'0 0.0
2018-Feb-18 13:59N 28°08' W 015°25'0 0.0
2018-Feb-18 13:29N 28°08' W 015°25'0 0.0
2018-Feb-18 12:59N 28°08' W 015°25'0 0.0
2018-Feb-18 12:29N 28°08' W 015°25'0 0.0
2018-Feb-18 11:59N 28°08' W 015°25'0 0.0
2018-Feb-18 11:29N 28°08' W 015°25'0 0.0
2018-Feb-18 10:50N 28°08' W 015°25'0 0.0
2018-Feb-18 10:20N 28°08' W 015°25'0 0.0
2018-Feb-18 09:53N 28°08' W 015°25'0 0.0
2018-Feb-18 09:23N 28°08' W 015°25'0 0.0
2018-Feb-18 08:53N 28°08' W 015°25'0 0.0
2018-Feb-18 08:23N 28°08' W 015°25'0 0.0
2018-Feb-18 07:53N 28°08' W 015°25'0 0.0
2018-Feb-18 07:23N 28°08' W 015°25'0 0.0
2018-Feb-18 06:56N 28°08' W 015°25'0 0.0
2018-Feb-18 06:20N 28°08' W 015°25'0 0.0
2018-Feb-18 05:56N 28°08' W 015°25'0 0.0
2018-Feb-18 05:26N 28°08' W 015°25'0 0.0
2018-Feb-18 04:56N 28°08' W 015°25'0 0.0
2018-Feb-18 04:26N 28°08' W 015°25'0 0.0
2018-Feb-18 03:59N 28°08' W 015°25'0 0.0
2018-Feb-18 03:29N 28°08' W 015°25'0 0.0
2018-Feb-18 02:59N 28°08' W 015°25'0 0.0
2018-Feb-18 02:29N 28°08' W 015°25'0 0.0
2018-Feb-18 02:00N 28°08' W 015°25'0 0.6
2018-Feb-18 01:30N 28°08' W 015°25'1 1.5
2018-Feb-18 01:00N 28°07' W 015°25'2 4.6
2018-Feb-18 00:30N 28°09' W 015°23'4 7.7
2018-Feb-18 00:00N 28°13' W 015°22'510.7
2018-Feb-17 23:30N 28°17' W 015°24'713.0
2018-Feb-17 23:00N 28°17' W 015°32'713.6
2018-Feb-17 22:31N 28°17' W 015°39'5 9.2
2018-Feb-17 22:00N 28°16' W 015°45'4 7.8
2018-Feb-17 21:30N 28°16' W 015°49'4 7.9
2018-Feb-17 21:00N 28°16' W 015°54'4 8.0
2018-Feb-17 20:30N 28°17' W 015°58'4 8.7
2018-Feb-17 20:00N 28°20' W 016°02'4 8.7
2018-Feb-17 19:31N 28°22' W 016°05'4 8.7
2018-Feb-17 19:00N 28°25' W 016°09'4 8.7
2018-Feb-17 18:30N 28°28' W 016°13'2 3.0
2018-Feb-17 18:00N 28°28' W 016°15'0 0.0
2018-Feb-17 17:30N 28°28' W 016°15'0 0.0
2018-Feb-17 16:59N 28°28' W 016°15'0 0.0
2018-Feb-17 16:29N 28°28' W 016°15'0 0.0
2018-Feb-17 15:59N 28°28' W 016°15'0 0.0
2018-Feb-17 15:29N 28°28' W 016°15'0 0.0
2018-Feb-17 14:59N 28°28' W 016°15'0 0.0
2018-Feb-17 14:29N 28°28' W 016°15'0 0.0
2018-Feb-17 13:59N 28°28' W 016°15'0 0.0
2018-Feb-17 13:29N 28°28' W 016°15'0 0.0
2018-Feb-17 12:59N 28°28' W 016°15'0 0.0
2018-Feb-17 12:29N 28°28' W 016°15'0 0.0
2018-Feb-17 11:59N 28°28' W 016°15'0 0.0
2018-Feb-17 11:29N 28°28' W 016°15'0 0.0
2018-Feb-17 10:58N 28°28' W 016°15'0 0.0
2018-Feb-17 10:28N 28°28' W 016°15'0 0.0
2018-Feb-17 09:58N 28°28' W 016°15'0 0.0
2018-Feb-17 09:28N 28°28' W 016°15'0 0.0
2018-Feb-17 08:58N 28°28' W 016°15'0 0.0
2018-Feb-17 08:28N 28°28' W 016°15'0 0.0
2018-Feb-17 07:58N 28°28' W 016°15'0 0.0
2018-Feb-17 07:28N 28°28' W 016°15'0 0.0
2018-Feb-17 07:00N 28°28' W 016°15'1 1.5
2018-Feb-17 06:29N 28°29' W 016°14'4 8.8
2018-Feb-17 06:01N 28°28' W 016°09'713.5
2018-Feb-17 05:29N 28°34' W 016°05'22 0.9
2018-Feb-16 04:03N 28°49' W 016°23'315.3
2018-Feb-16 03:51N 28°50' W 016°20'615.7
2018-Feb-16 03:28N 28°51' W 016°13'715.5
2018-Feb-16 03:00N 28°51' W 016°05'815.7
2018-Feb-16 02:30N 28°51' W 015°56'815.7
2018-Feb-16 02:00N 28°51' W 015°47'815.5
2018-Feb-16 01:30N 28°51' W 015°38'815.7
2018-Feb-16 01:00N 28°50' W 015°29'815.7
2018-Feb-16 00:30N 28°50' W 015°20'815.3
2018-Feb-16 00:00N 28°50' W 015°11'815.5
2018-Feb-15 23:30N 28°50' W 015°03'815.6
2018-Feb-15 23:00N 28°50' W 014°54'815.5
2018-Feb-15 22:30N 28°49' W 014°45'815.5
2018-Feb-15 22:00N 28°49' W 014°36'815.7
2018-Feb-15 21:30N 28°49' W 014°27'815.6
2018-Feb-15 21:00N 28°49' W 014°18'815.7
2018-Feb-15 20:30N 28°48' W 014°09'815.5
2018-Feb-15 20:00N 28°48' W 014°00'815.6
2018-Feb-15 19:30N 28°48' W 013°51'815.6
2018-Feb-15 19:00N 28°50' W 013°43'816.1
2018-Feb-15 18:30N 28°55' W 013°35'5 8.7
2018-Feb-15 17:59N 28°58' W 013°32'0 0.0
2018-Feb-15 17:29N 28°58' W 013°32'0 0.0
2018-Feb-15 16:59N 28°58' W 013°32'0 0.0
2018-Feb-15 16:29N 28°58' W 013°32'0 0.0
2018-Feb-15 15:56N 28°58' W 013°32'0 0.0
2018-Feb-15 15:29N 28°58' W 013°32'0 0.0
2018-Feb-15 14:59N 28°58' W 013°32'0 0.0
2018-Feb-15 14:23N 28°58' W 013°32'0 0.0
2018-Feb-15 13:59N 28°58' W 013°32'0 0.0
2018-Feb-15 13:29N 28°58' W 013°32'0 0.0
2018-Feb-15 12:59N 28°58' W 013°32'0 0.0
2018-Feb-15 12:29N 28°58' W 013°32'0 0.0
2018-Feb-15 11:59N 28°58' W 013°32'0 0.0
2018-Feb-15 11:23N 28°58' W 013°32'0 0.0
2018-Feb-15 10:59N 28°58' W 013°32'0 0.0
2018-Feb-15 10:29N 28°58' W 013°32'0 0.0
2018-Feb-15 09:59N 28°58' W 013°32'0 0.0
2018-Feb-15 09:29N 28°58' W 013°32'0 0.0
2018-Feb-15 08:59N 28°58' W 013°32'0 0.0
2018-Feb-15 08:29N 28°58' W 013°32'0 0.0
2018-Feb-15 07:59N 28°58' W 013°32'0 0.2
2018-Feb-15 07:30N 28°58' W 013°32'0 1.0
2018-Feb-15 07:00N 28°58' W 013°32'510.4
2018-Feb-15 06:30N 28°60' W 013°26'713.8
2018-Feb-15 05:58N 29°06' W 013°23'1713.9
2018-Feb-15 04:44N 29°23' W 013°17'314.4
2018-Feb-15 04:30N 29°26' W 013°17'713.4
2018-Feb-15 04:00N 29°33' W 013°20'713.6
2018-Feb-15 03:30N 29°37' W 013°25'713.8
2018-Feb-15 03:00N 29°42' W 013°31'713.9
2018-Feb-15 02:29N 29°47' W 013°37'714.0
2018-Feb-15 02:00N 29°51' W 013°43'3114.6
2018-Feb-14 23:53N 30°12' W 014°09'  
2018-Feb-12 04:41N 28°47' W 015°44'1 7.8
2018-Feb-12 04:30N 28°46' W 015°43'4 7.7
2018-Feb-12 04:00N 28°42' W 015°41'4 7.6
2018-Feb-12 03:30N 28°39' W 015°39'4 7.4
2018-Feb-12 03:00N 28°36' W 015°37'4 7.4
2018-Feb-12 02:30N 28°32' W 015°35'4 7.5
2018-Feb-12 02:00N 28°29' W 015°33'4 7.4
2018-Feb-12 01:30N 28°26' W 015°31'4 7.2
2018-Feb-12 01:00N 28°22' W 015°30'4 7.4
2018-Feb-12 00:30N 28°19' W 015°28'4 7.0
2018-Feb-12 00:00N 28°16' W 015°26'4 7.0
2018-Feb-11 23:30N 28°13' W 015°24'4 7.0
2018-Feb-11 23:00N 28°10' W 015°22'3 5.7
2018-Feb-11 22:30N 28°07' W 015°24'2 3.1
2018-Feb-11 21:50N 28°08' W 015°25'0 0.0
2018-Feb-11 21:23N 28°08' W 015°25'0 0.0
2018-Feb-11 20:53N 28°08' W 015°25'0 0.0
2018-Feb-11 20:23N 28°08' W 015°25'0 0.0
2018-Feb-11 19:53N 28°08' W 015°25'0 0.0
2018-Feb-11 19:23N 28°08' W 015°25'0 0.0
2018-Feb-11 18:53N 28°08' W 015°25'0 0.0
2018-Feb-11 18:26N 28°08' W 015°25'0 0.0
2018-Feb-11 17:41N 28°08' W 015°25'0 0.0
2018-Feb-11 17:26N 28°08' W 015°25'0 0.0
2018-Feb-11 16:53N 28°08' W 015°25'0 0.0
2018-Feb-11 16:26N 28°08' W 015°25'0 0.0
2018-Feb-11 15:56N 28°08' W 015°25'0 0.0
2018-Feb-11 15:29N 28°08' W 015°25'0 0.0
2018-Feb-11 14:59N 28°08' W 015°25'0 0.0
2018-Feb-11 14:14N 28°08' W 015°25'0 0.0
2018-Feb-11 13:59N 28°08' W 015°25'0 0.0
2018-Feb-11 13:29N 28°08' W 015°25'0 0.0
2018-Feb-11 12:59N 28°08' W 015°25'0 0.0
2018-Feb-11 12:29N 28°08' W 015°25'0 0.0
2018-Feb-11 11:59N 28°08' W 015°25'0 0.0
2018-Feb-11 11:29N 28°08' W 015°25'0 0.0
2018-Feb-11 10:59N 28°08' W 015°25'0 0.0
2018-Feb-11 10:29N 28°08' W 015°25'0 0.0
2018-Feb-11 09:59N 28°08' W 015°25'0 0.0
2018-Feb-11 09:29N 28°08' W 015°25'0 0.0
2018-Feb-11 08:59N 28°08' W 015°25'0 0.0
2018-Feb-11 08:20N 28°08' W 015°25'0 0.0
2018-Feb-11 07:47N 28°08' W 015°25'0 0.0
2018-Feb-11 07:23N 28°08' W 015°25'0 0.0
2018-Feb-11 06:38N 28°08' W 015°25'0 0.0
2018-Feb-11 06:20N 28°08' W 015°25'0 0.0
2018-Feb-11 05:53N 28°08' W 015°25'0 0.0
2018-Feb-11 05:23N 28°08' W 015°25'0 0.0
2018-Feb-11 04:53N 28°08' W 015°25'0 0.0
2018-Feb-11 04:26N 28°08' W 015°25'0 0.0
2018-Feb-11 03:56N 28°08' W 015°25'0 0.0
2018-Feb-11 03:20N 28°08' W 015°25'0 0.0
2018-Feb-11 02:58N 28°08' W 015°25'0 0.0
2018-Feb-11 02:28N 28°08' W 015°25'0 0.0
2018-Feb-11 01:49N 28°08' W 015°25'0 0.0
2018-Feb-11 01:28N 28°08' W 015°25'0 0.2
2018-Feb-11 01:00N 28°08' W 015°25'1 2.5
2018-Feb-11 00:31N 28°07' W 015°25'5 8.9
2018-Feb-11 00:00N 28°11' W 015°22'612.0
2018-Feb-10 23:30N 28°17' W 015°24'714.1
2018-Feb-10 23:00N 28°17' W 015°32'714.1
2018-Feb-10 22:30N 28°17' W 015°40'611.3
2018-Feb-10 21:59N 28°16' W 015°46'4 7.4
2018-Feb-10 21:30N 28°16' W 015°50'4 7.1
2018-Feb-10 21:00N 28°15' W 015°54'5 8.0
2018-Feb-10 20:22N 28°18' W 015°59'3 8.6
2018-Feb-10 20:00N 28°20' W 016°02'4 8.6
2018-Feb-10 19:30N 28°23' W 016°06'4 8.5
2018-Feb-10 19:00N 28°25' W 016°09'4 8.4
2018-Feb-10 18:30N 28°28' W 016°13'2 3.0
2018-Feb-10 17:58N 28°28' W 016°15'0 0.0
2018-Feb-10 17:28N 28°28' W 016°15'0 0.0
2018-Feb-10 16:58N 28°28' W 016°15'0 0.0
2018-Feb-10 16:28N 28°28' W 016°15'0 0.0
2018-Feb-10 15:58N 28°28' W 016°15'0 0.0
2018-Feb-10 15:28N 28°28' W 016°15'0 0.0
2018-Feb-10 14:58N 28°28' W 016°15'0 0.0
2018-Feb-10 14:28N 28°28' W 016°15'0 0.0
2018-Feb-10 13:58N 28°28' W 016°15'0 0.0
2018-Feb-10 13:28N 28°28' W 016°15'0 0.0
2018-Feb-10 12:58N 28°28' W 016°15'0 0.0
2018-Feb-10 12:28N 28°28' W 016°15'0 0.0
2018-Feb-10 11:58N 28°28' W 016°15'0 0.0
2018-Feb-10 11:30N 28°28' W 016°15'0 0.0
2018-Feb-10 11:00N 28°28' W 016°15'0 0.0
2018-Feb-10 10:28N 28°28' W 016°15'0 0.0
2018-Feb-10 09:58N 28°28' W 016°15'0 0.0
2018-Feb-10 09:28N 28°28' W 016°15'0 0.0
2018-Feb-10 08:58N 28°28' W 016°15'0 0.0
2018-Feb-10 08:28N 28°28' W 016°15'0 0.0
2018-Feb-10 07:58N 28°28' W 016°15'0 0.1
2018-Feb-10 07:30N 28°28' W 016°15'1 1.5
2018-Feb-10 07:00N 28°29' W 016°14'4 8.5
2018-Feb-10 06:31N 28°29' W 016°09'713.0
2018-Feb-10 06:00N 28°34' W 016°04'  
Track history (hours):
 
Tides and Currents Weather Stations Pressure Air Temp Water Temp Dewpoint Dewpoint Depression Visibility Wind Speed Wind Dir Waves Ship Positions

Aidasol

Last reported at 2018-Feb-19 04:48 UTC. Time now 2018-Feb-20 21:18 UTC.
Position N 28°50' W 015°45'.

Length 253 m; draft 7.3 m.

Type: Passenger vessel. MMSI: 247302900.

Date/timePositionNaut miles runAvg speedWind from/ knotsBaromVisibWave heightAir tempDewpointWater temp
2018-Feb-19 04:48N 28°50' W 015°45'2 7.6
2018-Feb-19 04:30N 28°48' W 015°44'4 7.6
2018-Feb-19 04:01N 28°44' W 015°42'4 7.7
2018-Feb-19 03:30N 28°41' W 015°40'4 7.6
2018-Feb-19 03:00N 28°38' W 015°38'4 7.7
2018-Feb-19 02:30N 28°34' W 015°36'4 7.7
2018-Feb-19 02:00N 28°31' W 015°34'4 7.7
2018-Feb-19 01:30N 28°27' W 015°32'4 7.7
2018-Feb-19 01:00N 28°24' W 015°30'4 7.7
2018-Feb-19 00:30N 28°20' W 015°28'4 7.7
2018-Feb-19 00:00N 28°17' W 015°26'4 7.7
2018-Feb-18 23:30N 28°13' W 015°24'4 7.5
2018-Feb-18 23:00N 28°10' W 015°22'3 6.2
2018-Feb-18 22:30N 28°07' W 015°23'2 3.6
2018-Feb-18 21:54N 28°08' W 015°25'0 0.0
2018-Feb-18 21:24N 28°08' W 015°25'0 0.0
2018-Feb-18 20:54N 28°08' W 015°25'0 0.0
2018-Feb-18 20:27N 28°08' W 015°25'0 0.0
2018-Feb-18 19:58N 28°08' W 015°25'0 0.0
2018-Feb-18 19:26N 28°08' W 015°25'0 0.0
2018-Feb-18 18:56N 28°08' W 015°25'0 0.0
2018-Feb-18 18:26N 28°08' W 015°25'0 0.0
2018-Feb-18 17:59N 28°08' W 015°25'0 0.0
2018-Feb-18 17:29N 28°08' W 015°25'0 0.0
2018-Feb-18 16:59N 28°08' W 015°25'0 0.0
2018-Feb-18 16:29N 28°08' W 015°25'0 0.0
2018-Feb-18 15:59N 28°08' W 015°25'0 0.0
2018-Feb-18 15:29N 28°08' W 015°25'0 0.0
2018-Feb-18 14:59N 28°08' W 015°25'0 0.0
2018-Feb-18 14:29N 28°08' W 015°25'0 0.0
2018-Feb-18 13:59N 28°08' W 015°25'0 0.0
2018-Feb-18 13:29N 28°08' W 015°25'0 0.0
2018-Feb-18 12:59N 28°08' W 015°25'0 0.0
2018-Feb-18 12:29N 28°08' W 015°25'0 0.0
2018-Feb-18 11:59N 28°08' W 015°25'0 0.0
2018-Feb-18 11:29N 28°08' W 015°25'0 0.0
2018-Feb-18 10:50N 28°08' W 015°25'0 0.0
2018-Feb-18 10:20N 28°08' W 015°25'0 0.0
2018-Feb-18 09:53N 28°08' W 015°25'0 0.0
2018-Feb-18 09:23N 28°08' W 015°25'0 0.0
2018-Feb-18 08:53N 28°08' W 015°25'0 0.0
2018-Feb-18 08:23N 28°08' W 015°25'0 0.0
2018-Feb-18 07:53N 28°08' W 015°25'0 0.0
2018-Feb-18 07:23N 28°08' W 015°25'0 0.0
2018-Feb-18 06:56N 28°08' W 015°25'0 0.0
2018-Feb-18 06:20N 28°08' W 015°25'0 0.0
2018-Feb-18 05:56N 28°08' W 015°25'0 0.0
2018-Feb-18 05:26N 28°08' W 015°25'0 0.0
2018-Feb-18 04:56N 28°08' W 015°25'0 0.0
2018-Feb-18 04:26N 28°08' W 015°25'0 0.0
2018-Feb-18 03:59N 28°08' W 015°25'0 0.0
2018-Feb-18 03:29N 28°08' W 015°25'0 0.0
2018-Feb-18 02:59N 28°08' W 015°25'0 0.0
2018-Feb-18 02:29N 28°08' W 015°25'0 0.0
2018-Feb-18 02:00N 28°08' W 015°25'0 0.6
2018-Feb-18 01:30N 28°08' W 015°25'1 1.5
2018-Feb-18 01:00N 28°07' W 015°25'2 4.6
2018-Feb-18 00:30N 28°09' W 015°23'4 7.7
2018-Feb-18 00:00N 28°13' W 015°22'510.7
2018-Feb-17 23:30N 28°17' W 015°24'713.0
2018-Feb-17 23:00N 28°17' W 015°32'713.6
2018-Feb-17 22:31N 28°17' W 015°39'5 9.2
2018-Feb-17 22:00N 28°16' W 015°45'4 7.8
2018-Feb-17 21:30N 28°16' W 015°49'4 7.9
2018-Feb-17 21:00N 28°16' W 015°54'4 8.0
2018-Feb-17 20:30N 28°17' W 015°58'4 8.7
2018-Feb-17 20:00N 28°20' W 016°02'4 8.7
2018-Feb-17 19:31N 28°22' W 016°05'4 8.7
2018-Feb-17 19:00N 28°25' W 016°09'4 8.7
2018-Feb-17 18:30N 28°28' W 016°13'2 3.0
2018-Feb-17 18:00N 28°28' W 016°15'0 0.0
2018-Feb-17 17:30N 28°28' W 016°15'0 0.0
2018-Feb-17 16:59N 28°28' W 016°15'0 0.0
2018-Feb-17 16:29N 28°28' W 016°15'0 0.0
2018-Feb-17 15:59N 28°28' W 016°15'0 0.0
2018-Feb-17 15:29N 28°28' W 016°15'0 0.0
2018-Feb-17 14:59N 28°28' W 016°15'0 0.0
2018-Feb-17 14:29N 28°28' W 016°15'0 0.0
2018-Feb-17 13:59N 28°28' W 016°15'0 0.0
2018-Feb-17 13:29N 28°28' W 016°15'0 0.0
2018-Feb-17 12:59N 28°28' W 016°15'0 0.0
2018-Feb-17 12:29N 28°28' W 016°15'0 0.0
2018-Feb-17 11:59N 28°28' W 016°15'0 0.0
2018-Feb-17 11:29N 28°28' W 016°15'0 0.0
2018-Feb-17 10:58N 28°28' W 016°15'0 0.0
2018-Feb-17 10:28N 28°28' W 016°15'0 0.0
2018-Feb-17 09:58N 28°28' W 016°15'0 0.0
2018-Feb-17 09:28N 28°28' W 016°15'0 0.0
2018-Feb-17 08:58N 28°28' W 016°15'0 0.0
2018-Feb-17 08:28N 28°28' W 016°15'0 0.0
2018-Feb-17 07:58N 28°28' W 016°15'0 0.0
2018-Feb-17 07:28N 28°28' W 016°15'0 0.0
2018-Feb-17 07:00N 28°28' W 016°15'1 1.5
2018-Feb-17 06:29N 28°29' W 016°14'4 8.8
2018-Feb-17 06:01N 28°28' W 016°09'713.5
2018-Feb-17 05:29N 28°34' W 016°05'22 0.9
2018-Feb-16 04:03N 28°49' W 016°23'315.3
2018-Feb-16 03:51N 28°50' W 016°20'615.7
2018-Feb-16 03:28N 28°51' W 016°13'715.5
2018-Feb-16 03:00N 28°51' W 016°05'815.7
2018-Feb-16 02:30N 28°51' W 015°56'815.7
2018-Feb-16 02:00N 28°51' W 015°47'815.5
2018-Feb-16 01:30N 28°51' W 015°38'815.7
2018-Feb-16 01:00N 28°50' W 015°29'815.7
2018-Feb-16 00:30N 28°50' W 015°20'815.3
2018-Feb-16 00:00N 28°50' W 015°11'815.5
2018-Feb-15 23:30N 28°50' W 015°03'815.6
2018-Feb-15 23:00N 28°50' W 014°54'815.5
2018-Feb-15 22:30N 28°49' W 014°45'815.5
2018-Feb-15 22:00N 28°49' W 014°36'815.7
2018-Feb-15 21:30N 28°49' W 014°27'815.6
2018-Feb-15 21:00N 28°49' W 014°18'815.7
2018-Feb-15 20:30N 28°48' W 014°09'815.5
2018-Feb-15 20:00N 28°48' W 014°00'815.6
2018-Feb-15 19:30N 28°48' W 013°51'815.6
2018-Feb-15 19:00N 28°50' W 013°43'816.1
2018-Feb-15 18:30N 28°55' W 013°35'5 8.7
2018-Feb-15 17:59N 28°58' W 013°32'0 0.0
2018-Feb-15 17:29N 28°58' W 013°32'0 0.0
2018-Feb-15 16:59N 28°58' W 013°32'0 0.0
2018-Feb-15 16:29N 28°58' W 013°32'0 0.0
2018-Feb-15 15:56N 28°58' W 013°32'0 0.0
2018-Feb-15 15:29N 28°58' W 013°32'0 0.0
2018-Feb-15 14:59N 28°58' W 013°32'0 0.0
2018-Feb-15 14:23N 28°58' W 013°32'0 0.0
2018-Feb-15 13:59N 28°58' W 013°32'0 0.0
2018-Feb-15 13:29N 28°58' W 013°32'0 0.0
2018-Feb-15 12:59N 28°58' W 013°32'0 0.0
2018-Feb-15 12:29N 28°58' W 013°32'0 0.0
2018-Feb-15 11:59N 28°58' W 013°32'0 0.0
2018-Feb-15 11:23N 28°58' W 013°32'0 0.0
2018-Feb-15 10:59N 28°58' W 013°32'0 0.0
2018-Feb-15 10:29N 28°58' W 013°32'0 0.0
2018-Feb-15 09:59N 28°58' W 013°32'0 0.0
2018-Feb-15 09:29N 28°58' W 013°32'0 0.0
2018-Feb-15 08:59N 28°58' W 013°32'0 0.0
2018-Feb-15 08:29N 28°58' W 013°32'0 0.0
2018-Feb-15 07:59N 28°58' W 013°32'0 0.2
2018-Feb-15 07:30N 28°58' W 013°32'0 1.0
2018-Feb-15 07:00N 28°58' W 013°32'510.4
2018-Feb-15 06:30N 28°60' W 013°26'713.8
2018-Feb-15 05:58N 29°06' W 013°23'1713.9
2018-Feb-15 04:44N 29°23' W 013°17'314.4
2018-Feb-15 04:30N 29°26' W 013°17'713.4
2018-Feb-15 04:00N 29°33' W 013°20'713.6
2018-Feb-15 03:30N 29°37' W 013°25'713.8
2018-Feb-15 03:00N 29°42' W 013°31'713.9
2018-Feb-15 02:29N 29°47' W 013°37'714.0
2018-Feb-15 02:00N 29°51' W 013°43'3114.6
2018-Feb-14 23:53N 30°12' W 014°09'  
2018-Feb-12 04:41N 28°47' W 015°44'1 7.8
2018-Feb-12 04:30N 28°46' W 015°43'4 7.7
2018-Feb-12 04:00N 28°42' W 015°41'4 7.6
2018-Feb-12 03:30N 28°39' W 015°39'4 7.4
2018-Feb-12 03:00N 28°36' W 015°37'4 7.4
2018-Feb-12 02:30N 28°32' W 015°35'4 7.5
2018-Feb-12 02:00N 28°29' W 015°33'4 7.4
2018-Feb-12 01:30N 28°26' W 015°31'4 7.2
2018-Feb-12 01:00N 28°22' W 015°30'4 7.4
2018-Feb-12 00:30N 28°19' W 015°28'4 7.0
2018-Feb-12 00:00N 28°16' W 015°26'4 7.0
2018-Feb-11 23:30N 28°13' W 015°24'4 7.0
2018-Feb-11 23:00N 28°10' W 015°22'3 5.7
2018-Feb-11 22:30N 28°07' W 015°24'2 3.1
2018-Feb-11 21:50N 28°08' W 015°25'0 0.0
2018-Feb-11 21:23N 28°08' W 015°25'0 0.0
2018-Feb-11 20:53N 28°08' W 015°25'0 0.0
2018-Feb-11 20:23N 28°08' W 015°25'0 0.0
2018-Feb-11 19:53N 28°08' W 015°25'0 0.0
2018-Feb-11 19:23N 28°08' W 015°25'0 0.0
2018-Feb-11 18:53N 28°08' W 015°25'0 0.0
2018-Feb-11 18:26N 28°08' W 015°25'0 0.0
2018-Feb-11 17:41N 28°08' W 015°25'0 0.0
2018-Feb-11 17:26N 28°08' W 015°25'0 0.0
2018-Feb-11 16:53N 28°08' W 015°25'0 0.0
2018-Feb-11 16:26N 28°08' W 015°25'0 0.0
2018-Feb-11 15:56N 28°08' W 015°25'0 0.0
2018-Feb-11 15:29N 28°08' W 015°25'0 0.0
2018-Feb-11 14:59N 28°08' W 015°25'0 0.0
2018-Feb-11 14:14N 28°08' W 015°25'0 0.0
2018-Feb-11 13:59N 28°08' W 015°25'0 0.0
2018-Feb-11 13:29N 28°08' W 015°25'0 0.0
2018-Feb-11 12:59N 28°08' W 015°25'0 0.0
2018-Feb-11 12:29N 28°08' W 015°25'0 0.0
2018-Feb-11 11:59N 28°08' W 015°25'0 0.0
2018-Feb-11 11:29N 28°08' W 015°25'0 0.0
2018-Feb-11 10:59N 28°08' W 015°25'0 0.0
2018-Feb-11 10:29N 28°08' W 015°25'0 0.0
2018-Feb-11 09:59N 28°08' W 015°25'0 0.0
2018-Feb-11 09:29N 28°08' W 015°25'0 0.0
2018-Feb-11 08:59N 28°08' W 015°25'0 0.0
2018-Feb-11 08:20N 28°08' W 015°25'0 0.0
2018-Feb-11 07:47N 28°08' W 015°25'0 0.0
2018-Feb-11 07:23N 28°08' W 015°25'0 0.0
2018-Feb-11 06:38N 28°08' W 015°25'0 0.0
2018-Feb-11 06:20N 28°08' W 015°25'0 0.0
2018-Feb-11 05:53N 28°08' W 015°25'0 0.0
2018-Feb-11 05:23N 28°08' W 015°25'0 0.0
2018-Feb-11 04:53N 28°08' W 015°25'0 0.0
2018-Feb-11 04:26N 28°08' W 015°25'0 0.0
2018-Feb-11 03:56N 28°08' W 015°25'0 0.0
2018-Feb-11 03:20N 28°08' W 015°25'0 0.0
2018-Feb-11 02:58N 28°08' W 015°25'0 0.0
2018-Feb-11 02:28N 28°08' W 015°25'0 0.0
2018-Feb-11 01:49N 28°08' W 015°25'0 0.0
2018-Feb-11 01:28N 28°08' W 015°25'0 0.2
2018-Feb-11 01:00N 28°08' W 015°25'1 2.5
2018-Feb-11 00:31N 28°07' W 015°25'5 8.9
2018-Feb-11 00:00N 28°11' W 015°22'612.0
2018-Feb-10 23:30N 28°17' W 015°24'714.1
2018-Feb-10 23:00N 28°17' W 015°32'714.1
2018-Feb-10 22:30N 28°17' W 015°40'611.3
2018-Feb-10 21:59N 28°16' W 015°46'4 7.4
2018-Feb-10 21:30N 28°16' W 015°50'4 7.1
2018-Feb-10 21:00N 28°15' W 015°54'5 8.0
2018-Feb-10 20:22N 28°18' W 015°59'3 8.6
2018-Feb-10 20:00N 28°20' W 016°02'4 8.6
2018-Feb-10 19:30N 28°23' W 016°06'4 8.5
2018-Feb-10 19:00N 28°25' W 016°09'4 8.4
2018-Feb-10 18:30N 28°28' W 016°13'2 3.0
2018-Feb-10 17:58N 28°28' W 016°15'0 0.0
2018-Feb-10 17:28N 28°28' W 016°15'0 0.0
2018-Feb-10 16:58N 28°28' W 016°15'0 0.0
2018-Feb-10 16:28N 28°28' W 016°15'0 0.0
2018-Feb-10 15:58N 28°28' W 016°15'0 0.0
2018-Feb-10 15:28N 28°28' W 016°15'0 0.0
2018-Feb-10 14:58N 28°28' W 016°15'0 0.0
2018-Feb-10 14:28N 28°28' W 016°15'0 0.0
2018-Feb-10 13:58N 28°28' W 016°15'0 0.0
2018-Feb-10 13:28N 28°28' W 016°15'0 0.0
2018-Feb-10 12:58N 28°28' W 016°15'0 0.0
2018-Feb-10 12:28N 28°28' W 016°15'0 0.0
2018-Feb-10 11:58N 28°28' W 016°15'0 0.0
2018-Feb-10 11:30N 28°28' W 016°15'0 0.0
2018-Feb-10 11:00N 28°28' W 016°15'0 0.0
2018-Feb-10 10:28N 28°28' W 016°15'0 0.0
2018-Feb-10 09:58N 28°28' W 016°15'0 0.0
2018-Feb-10 09:28N 28°28' W 016°15'0 0.0
2018-Feb-10 08:58N 28°28' W 016°15'0 0.0
2018-Feb-10 08:28N 28°28' W 016°15'0 0.0
2018-Feb-10 07:58N 28°28' W 016°15'0 0.1
2018-Feb-10 07:30N 28°28' W 016°15'1 1.5
2018-Feb-10 07:00N 28°29' W 016°14'4 8.5
2018-Feb-10 06:31N 28°29' W 016°09'713.0
2018-Feb-10 06:00N 28°34' W 016°04'  

Dump ship's entire track history